sensor_id;sensor_type;location;lat;lon;timestamp;temperature;humidity
22629;DHT22;11481;53.694;9.910;2024-03-07T00:01:15;5.80;99.90
22629;DHT22;11481;53.694;9.910;2024-03-07T00:03:42;5.80;99.90
22629;DHT22;11481;53.694;9.910;2024-03-07T00:06:10;5.80;99.90
22629;DHT22;11481;53.694;9.910;2024-03-07T00:08:37;5.80;99.90
22629;DHT22;11481;53.694;9.910;2024-03-07T00:11:04;5.80;99.90
22629;DHT22;11481;53.694;9.910;2024-03-07T00:13:30;5.80;99.90
22629;DHT22;11481;53.694;9.910;2024-03-07T00:15:57;5.90;99.90
22629;DHT22;11481;53.694;9.910;2024-03-07T00:18:24;5.80;99.90
22629;DHT22;11481;53.694;9.910;2024-03-07T00:20:51;5.90;99.90
22629;DHT22;11481;53.694;9.910;2024-03-07T00:23:18;5.90;99.90
22629;DHT22;11481;53.694;9.910;2024-03-07T00:25:44;5.90;99.90
22629;DHT22;11481;53.694;9.910;2024-03-07T00:28:11;5.90;99.90
22629;DHT22;11481;53.694;9.910;2024-03-07T00:30:38;5.90;99.90
22629;DHT22;11481;53.694;9.910;2024-03-07T00:33:05;5.90;99.90
22629;DHT22;11481;53.694;9.910;2024-03-07T00:35:31;5.80;99.90
22629;DHT22;11481;53.694;9.910;2024-03-07T00:37:58;5.90;99.90
22629;DHT22;11481;53.694;9.910;2024-03-07T00:40:25;6.00;99.90
22629;DHT22;11481;53.694;9.910;2024-03-07T00:42:52;6.00;99.90
22629;DHT22;11481;53.694;9.910;2024-03-07T00:45:19;6.00;99.90
22629;DHT22;11481;53.694;9.910;2024-03-07T00:47:46;6.00;99.90
22629;DHT22;11481;53.694;9.910;2024-03-07T00:50:15;6.10;99.90
22629;DHT22;11481;53.694;9.910;2024-03-07T00:52:41;6.10;99.90
22629;DHT22;11481;53.694;9.910;2024-03-07T00:55:08;6.20;99.90
22629;DHT22;11481;53.694;9.910;2024-03-07T00:57:35;6.10;99.90
22629;DHT22;11481;53.694;9.910;2024-03-07T01:00:03;6.10;99.90
22629;DHT22;11481;53.694;9.910;2024-03-07T01:02:30;6.10;99.90
22629;DHT22;11481;53.694;9.910;2024-03-07T01:04:57;6.10;99.90
22629;DHT22;11481;53.694;9.910;2024-03-07T01:07:24;6.00;99.90
22629;DHT22;11481;53.694;9.910;2024-03-07T01:09:51;6.00;99.90
22629;DHT22;11481;53.694;9.910;2024-03-07T01:12:18;6.00;99.90
22629;DHT22;11481;53.694;9.910;2024-03-07T01:14:46;6.00;99.90
22629;DHT22;11481;53.694;9.910;2024-03-07T01:17:13;6.00;99.90
22629;DHT22;11481;53.694;9.910;2024-03-07T01:19:40;7.50;99.90
22629;DHT22;11481;53.694;9.910;2024-03-07T01:22:07;6.10;99.90
22629;DHT22;11481;53.694;9.910;2024-03-07T01:24:35;6.10;99.90
22629;DHT22;11481;53.694;9.910;2024-03-07T01:27:02;6.10;99.90
22629;DHT22;11481;53.694;9.910;2024-03-07T01:29:29;6.10;99.90
22629;DHT22;11481;53.694;9.910;2024-03-07T01:31:56;6.10;99.90
22629;DHT22;11481;53.694;9.910;2024-03-07T01:34:23;6.10;99.90
22629;DHT22;11481;53.694;9.910;2024-03-07T01:36:50;6.20;99.90
22629;DHT22;11481;53.694;9.910;2024-03-07T01:39:16;6.20;99.90
22629;DHT22;11481;53.694;9.910;2024-03-07T01:41:43;6.20;99.90
22629;DHT22;11481;53.694;9.910;2024-03-07T01:44:10;6.30;99.90
22629;DHT22;11481;53.694;9.910;2024-03-07T01:46:37;6.30;99.90
22629;DHT22;11481;53.694;9.910;2024-03-07T01:49:04;6.20;99.90
22629;DHT22;11481;53.694;9.910;2024-03-07T01:51:35;6.20;99.90
22629;DHT22;11481;53.694;9.910;2024-03-07T01:54:02;6.20;99.90
22629;DHT22;11481;53.694;9.910;2024-03-07T01:56:29;6.70;99.90
22629;DHT22;11481;53.694;9.910;2024-03-07T01:58:56;6.20;99.90
22629;DHT22;11481;53.694;9.910;2024-03-07T02:01:25;6.20;99.90
22629;DHT22;11481;53.694;9.910;2024-03-07T02:03:51;6.30;99.90
22629;DHT22;11481;53.694;9.910;2024-03-07T02:06:18;6.30;99.90
22629;DHT22;11481;53.694;9.910;2024-03-07T02:08:45;6.20;99.90
22629;DHT22;11481;53.694;9.910;2024-03-07T02:11:12;6.30;99.90
22629;DHT22;11481;53.694;9.910;2024-03-07T02:13:40;6.20;99.90
22629;DHT22;11481;53.694;9.910;2024-03-07T02:16:06;6.20;99.90
22629;DHT22;11481;53.694;9.910;2024-03-07T02:18:35;6.20;99.90
22629;DHT22;11481;53.694;9.910;2024-03-07T02:21:07;6.30;99.90
22629;DHT22;11481;53.694;9.910;2024-03-07T02:23:33;6.30;99.90
22629;DHT22;11481;53.694;9.910;2024-03-07T02:26:00;6.20;99.90
22629;DHT22;11481;53.694;9.910;2024-03-07T02:28:27;6.30;99.90
22629;DHT22;11481;53.694;9.910;2024-03-07T02:30:53;6.20;99.90
22629;DHT22;11481;53.694;9.910;2024-03-07T02:33:20;6.30;99.90
22629;DHT22;11481;53.694;9.910;2024-03-07T02:35:48;6.30;99.90
22629;DHT22;11481;53.694;9.910;2024-03-07T02:38:15;6.20;99.90
22629;DHT22;11481;53.694;9.910;2024-03-07T02:40:44;6.20;99.90
22629;DHT22;11481;53.694;9.910;2024-03-07T02:43:11;6.20;99.90
22629;DHT22;11481;53.694;9.910;2024-03-07T02:45:38;6.00;99.90
22629;DHT22;11481;53.694;9.910;2024-03-07T02:48:05;6.00;99.90
22629;DHT22;11481;53.694;9.910;2024-03-07T02:50:36;6.00;99.90
22629;DHT22;11481;53.694;9.910;2024-03-07T02:53:05;6.00;99.90
22629;DHT22;11481;53.694;9.910;2024-03-07T02:55:32;6.10;99.90
22629;DHT22;11481;53.694;9.910;2024-03-07T02:57:59;6.10;99.90
22629;DHT22;11481;53.694;9.910;2024-03-07T03:00:26;6.10;99.90
22629;DHT22;11481;53.694;9.910;2024-03-07T03:02:54;6.10;99.90
22629;DHT22;11481;53.694;9.910;2024-03-07T03:05:21;6.00;99.90
22629;DHT22;11481;53.694;9.910;2024-03-07T03:07:48;6.00;99.90
22629;DHT22;11481;53.694;9.910;2024-03-07T03:10:22;6.10;99.90
22629;DHT22;11481;53.694;9.910;2024-03-07T03:13:00;6.00;99.90
22629;DHT22;11481;53.694;9.910;2024-03-07T03:15:28;6.00;99.90
22629;DHT22;11481;53.694;9.910;2024-03-07T03:17:56;6.00;99.90
22629;DHT22;11481;53.694;9.910;2024-03-07T03:20:26;6.00;99.90
22629;DHT22;11481;53.694;9.910;2024-03-07T03:23:01;6.00;99.90
22629;DHT22;11481;53.694;9.910;2024-03-07T03:25:47;5.90;99.90
22629;DHT22;11481;53.694;9.910;2024-03-07T03:28:17;5.80;99.90
22629;DHT22;11481;53.694;9.910;2024-03-07T03:30:47;5.70;99.90
22629;DHT22;11481;53.694;9.910;2024-03-07T03:33:14;5.70;99.90
22629;DHT22;11481;53.694;9.910;2024-03-07T03:35:42;5.70;99.90
22629;DHT22;11481;53.694;9.910;2024-03-07T03:38:09;5.70;99.90
22629;DHT22;11481;53.694;9.910;2024-03-07T03:40:36;5.70;99.90
22629;DHT22;11481;53.694;9.910;2024-03-07T03:43:03;5.70;99.90
22629;DHT22;11481;53.694;9.910;2024-03-07T03:45:31;5.70;99.90
22629;DHT22;11481;53.694;9.910;2024-03-07T03:48:01;5.70;99.90
22629;DHT22;11481;53.694;9.910;2024-03-07T03:50:29;5.70;99.90
22629;DHT22;11481;53.694;9.910;2024-03-07T03:52:56;5.70;99.90
22629;DHT22;11481;53.694;9.910;2024-03-07T03:55:24;5.70;99.90
22629;DHT22;11481;53.694;9.910;2024-03-07T03:57:50;5.70;99.90
22629;DHT22;11481;53.694;9.910;2024-03-07T04:00:17;5.60;99.90
22629;DHT22;11481;53.694;9.910;2024-03-07T04:02:46;5.50;99.90
22629;DHT22;11481;53.694;9.910;2024-03-07T04:05:18;5.50;99.90
22629;DHT22;11481;53.694;9.910;2024-03-07T04:07:46;5.40;99.90
22629;DHT22;11481;53.694;9.910;2024-03-07T04:10:14;5.30;99.90
22629;DHT22;11481;53.694;9.910;2024-03-07T04:12:41;5.30;99.90
22629;DHT22;11481;53.694;9.910;2024-03-07T04:15:12;5.10;99.90
22629;DHT22;11481;53.694;9.910;2024-03-07T04:17:40;5.00;99.90
22629;DHT22;11481;53.694;9.910;2024-03-07T04:20:07;5.00;99.90
22629;DHT22;11481;53.694;9.910;2024-03-07T04:22:37;4.90;99.90
22629;DHT22;11481;53.694;9.910;2024-03-07T04:25:07;4.90;99.90
22629;DHT22;11481;53.694;9.910;2024-03-07T04:27:42;4.80;99.90
22629;DHT22;11481;53.694;9.910;2024-03-07T04:30:09;4.90;99.90
22629;DHT22;11481;53.694;9.910;2024-03-07T04:32:37;4.90;99.90
22629;DHT22;11481;53.694;9.910;2024-03-07T04:35:05;4.90;99.90
22629;DHT22;11481;53.694;9.910;2024-03-07T04:37:38;5.00;99.90
22629;DHT22;11481;53.694;9.910;2024-03-07T04:40:05;4.90;99.90
22629;DHT22;11481;53.694;9.910;2024-03-07T04:42:46;4.90;99.90
22629;DHT22;11481;53.694;9.910;2024-03-07T04:45:16;4.90;99.90
22629;DHT22;11481;53.694;9.910;2024-03-07T04:47:44;4.90;99.90
22629;DHT22;11481;53.694;9.910;2024-03-07T04:50:11;4.80;99.90
22629;DHT22;11481;53.694;9.910;2024-03-07T04:52:39;4.90;99.90
22629;DHT22;11481;53.694;9.910;2024-03-07T04:55:07;4.70;99.90
22629;DHT22;11481;53.694;9.910;2024-03-07T04:57:38;4.70;99.90
22629;DHT22;11481;53.694;9.910;2024-03-07T05:00:15;4.60;99.90
22629;DHT22;11481;53.694;9.910;2024-03-07T05:02:48;4.60;99.90
22629;DHT22;11481;53.694;9.910;2024-03-07T05:05:17;4.50;99.90
22629;DHT22;11481;53.694;9.910;2024-03-07T05:07:57;4.40;99.90
22629;DHT22;11481;53.694;9.910;2024-03-07T05:10:24;4.30;99.90
22629;DHT22;11481;53.694;9.910;2024-03-07T05:12:51;4.40;99.90
22629;DHT22;11481;53.694;9.910;2024-03-07T05:15:18;4.40;99.90
22629;DHT22;11481;53.694;9.910;2024-03-07T05:17:44;4.40;99.90
22629;DHT22;11481;53.694;9.910;2024-03-07T05:20:12;4.50;99.90
22629;DHT22;11481;53.694;9.910;2024-03-07T05:22:40;4.50;99.90
22629;DHT22;11481;53.694;9.910;2024-03-07T05:25:11;4.40;99.90
22629;DHT22;11481;53.694;9.910;2024-03-07T05:27:37;4.40;99.90
22629;DHT22;11481;53.694;9.910;2024-03-07T05:30:05;4.40;99.90
22629;DHT22;11481;53.694;9.910;2024-03-07T05:32:36;4.40;99.90
22629;DHT22;11481;53.694;9.910;2024-03-07T05:35:29;4.40;99.90
22629;DHT22;11481;53.694;9.910;2024-03-07T05:38:18;4.30;99.90
22629;DHT22;11481;53.694;9.910;2024-03-07T05:40:52;4.40;99.90
22629;DHT22;11481;53.694;9.910;2024-03-07T05:43:20;4.50;99.90
22629;DHT22;11481;53.694;9.910;2024-03-07T05:45:47;4.50;99.90
22629;DHT22;11481;53.694;9.910;2024-03-07T05:48:18;4.50;99.90
22629;DHT22;11481;53.694;9.910;2024-03-07T05:50:51;4.50;99.90
22629;DHT22;11481;53.694;9.910;2024-03-07T05:53:17;4.50;99.90
22629;DHT22;11481;53.694;9.910;2024-03-07T05:55:45;4.40;99.90
22629;DHT22;11481;53.694;9.910;2024-03-07T05:58:20;4.40;99.90
22629;DHT22;11481;53.694;9.910;2024-03-07T06:00:48;4.40;99.90
22629;DHT22;11481;53.694;9.910;2024-03-07T06:03:18;5.00;99.90
22629;DHT22;11481;53.694;9.910;2024-03-07T06:05:50;4.60;99.90
22629;DHT22;11481;53.694;9.910;2024-03-07T06:08:18;4.60;99.90
22629;DHT22;11481;53.694;9.910;2024-03-07T06:10:45;4.70;99.90
22629;DHT22;11481;53.694;9.910;2024-03-07T06:13:19;4.70;99.90
22629;DHT22;11481;53.694;9.910;2024-03-07T06:15:51;4.70;99.90
22629;DHT22;11481;53.694;9.910;2024-03-07T06:18:17;4.70;99.90
22629;DHT22;11481;53.694;9.910;2024-03-07T06:20:45;4.70;99.90
22629;DHT22;11481;53.694;9.910;2024-03-07T06:23:13;4.70;99.90
22629;DHT22;11481;53.694;9.910;2024-03-07T06:25:42;4.80;99.90
22629;DHT22;11481;53.694;9.910;2024-03-07T06:28:22;4.80;99.90
22629;DHT22;11481;53.694;9.910;2024-03-07T06:31:17;4.80;99.90
22629;DHT22;11481;53.694;9.910;2024-03-07T06:33:46;5.50;99.90
22629;DHT22;11481;53.694;9.910;2024-03-07T06:36:14;4.90;99.90
22629;DHT22;11481;53.694;9.910;2024-03-07T06:38:42;5.60;99.90
22629;DHT22;11481;53.694;9.910;2024-03-07T06:41:10;4.80;99.90
22629;DHT22;11481;53.694;9.910;2024-03-07T06:43:45;4.60;99.90
22629;DHT22;11481;53.694;9.910;2024-03-07T06:46:15;4.60;99.90
22629;DHT22;11481;53.694;9.910;2024-03-07T06:48:43;5.40;99.90
22629;DHT22;11481;53.694;9.910;2024-03-07T06:51:11;4.50;99.90
22629;DHT22;11481;53.694;9.910;2024-03-07T06:53:38;4.50;99.90
22629;DHT22;11481;53.694;9.910;2024-03-07T06:56:06;4.50;99.90
22629;DHT22;11481;53.694;9.910;2024-03-07T06:58:35;4.50;99.90
22629;DHT22;11481;53.694;9.910;2024-03-07T07:01:06;4.50;99.90
22629;DHT22;11481;53.694;9.910;2024-03-07T07:03:37;4.50;99.90
22629;DHT22;11481;53.694;9.910;2024-03-07T07:06:04;4.40;99.90
22629;DHT22;11481;53.694;9.910;2024-03-07T07:08:34;4.40;99.90
22629;DHT22;11481;53.694;9.910;2024-03-07T07:11:01;4.50;99.90
22629;DHT22;11481;53.694;9.910;2024-03-07T07:13:31;4.40;99.90
22629;DHT22;11481;53.694;9.910;2024-03-07T07:15:58;4.50;99.90
22629;DHT22;11481;53.694;9.910;2024-03-07T07:18:29;4.60;99.90
22629;DHT22;11481;53.694;9.910;2024-03-07T07:21:20;4.70;99.90
22629;DHT22;11481;53.694;9.910;2024-03-07T07:23:51;4.70;99.90
22629;DHT22;11481;53.694;9.910;2024-03-07T07:26:38;4.70;99.90
22629;DHT22;11481;53.694;9.910;2024-03-07T07:29:06;4.70;99.90
22629;DHT22;11481;53.694;9.910;2024-03-07T07:31:33;4.70;99.90
22629;DHT22;11481;53.694;9.910;2024-03-07T07:34:00;4.80;99.90
22629;DHT22;11481;53.694;9.910;2024-03-07T07:36:47;4.80;99.90
22629;DHT22;11481;53.694;9.910;2024-03-07T07:39:15;4.80;99.90
22629;DHT22;11481;53.694;9.910;2024-03-07T07:41:47;4.80;99.90
22629;DHT22;11481;53.694;9.910;2024-03-07T07:44:17;4.80;99.90
22629;DHT22;11481;53.694;9.910;2024-03-07T07:46:55;4.70;99.90
22629;DHT22;11481;53.694;9.910;2024-03-07T07:49:32;4.70;99.90
22629;DHT22;11481;53.694;9.910;2024-03-07T07:51:59;4.70;99.90
22629;DHT22;11481;53.694;9.910;2024-03-07T07:54:32;4.80;99.90
22629;DHT22;11481;53.694;9.910;2024-03-07T07:56:58;4.80;99.90
22629;DHT22;11481;53.694;9.910;2024-03-07T07:59:28;4.80;99.90
22629;DHT22;11481;53.694;9.910;2024-03-07T08:01:58;4.70;99.90
22629;DHT22;11481;53.694;9.910;2024-03-07T08:04:31;4.80;99.90
22629;DHT22;11481;53.694;9.910;2024-03-07T08:06:58;4.80;99.90
22629;DHT22;11481;53.694;9.910;2024-03-07T08:09:26;4.90;99.90
22629;DHT22;11481;53.694;9.910;2024-03-07T08:11:53;5.00;99.90
22629;DHT22;11481;53.694;9.910;2024-03-07T08:14:23;5.10;99.90
22629;DHT22;11481;53.694;9.910;2024-03-07T08:16:56;5.10;99.90
22629;DHT22;11481;53.694;9.910;2024-03-07T08:19:24;5.10;99.90
22629;DHT22;11481;53.694;9.910;2024-03-07T08:21:52;5.20;99.90
22629;DHT22;11481;53.694;9.910;2024-03-07T08:24:18;5.20;99.90
22629;DHT22;11481;53.694;9.910;2024-03-07T08:26:45;5.30;99.90
22629;DHT22;11481;53.694;9.910;2024-03-07T08:29:16;5.30;99.90
22629;DHT22;11481;53.694;9.910;2024-03-07T08:31:44;5.20;99.90
22629;DHT22;11481;53.694;9.910;2024-03-07T08:34:19;5.30;99.90
22629;DHT22;11481;53.694;9.910;2024-03-07T08:36:48;5.40;99.90
22629;DHT22;11481;53.694;9.910;2024-03-07T08:39:15;5.40;99.90
22629;DHT22;11481;53.694;9.910;2024-03-07T08:41:42;5.40;99.90
22629;DHT22;11481;53.694;9.910;2024-03-07T08:44:11;5.40;99.90
22629;DHT22;11481;53.694;9.910;2024-03-07T08:46:40;5.40;99.90
22629;DHT22;11481;53.694;9.910;2024-03-07T08:49:15;5.40;99.90
22629;DHT22;11481;53.694;9.910;2024-03-07T08:51:45;5.50;99.90
22629;DHT22;11481;53.694;9.910;2024-03-07T08:54:17;5.40;99.90
22629;DHT22;11481;53.694;9.910;2024-03-07T08:56:45;5.40;99.90
22629;DHT22;11481;53.694;9.910;2024-03-07T08:59:12;5.50;99.90
22629;DHT22;11481;53.694;9.910;2024-03-07T09:01:46;5.60;99.90
22629;DHT22;11481;53.694;9.910;2024-03-07T09:04:13;5.80;99.90
22629;DHT22;11481;53.694;9.910;2024-03-07T09:06:41;5.80;99.90
22629;DHT22;11481;53.694;9.910;2024-03-07T09:09:09;5.80;99.90
22629;DHT22;11481;53.694;9.910;2024-03-07T09:11:42;5.80;99.90
22629;DHT22;11481;53.694;9.910;2024-03-07T09:14:09;5.80;99.90
22629;DHT22;11481;53.694;9.910;2024-03-07T09:16:37;5.60;99.90
22629;DHT22;11481;53.694;9.910;2024-03-07T09:19:03;7.50;99.90
22629;DHT22;11481;53.694;9.910;2024-03-07T09:21:31;5.50;99.90
22629;DHT22;11481;53.694;9.910;2024-03-07T09:23:58;5.50;99.90
22629;DHT22;11481;53.694;9.910;2024-03-07T09:26:24;5.60;99.90
22629;DHT22;11481;53.694;9.910;2024-03-07T09:28:51;5.60;99.90
22629;DHT22;11481;53.694;9.910;2024-03-07T09:31:18;5.50;99.90
22629;DHT22;11481;53.694;9.910;2024-03-07T09:33:47;5.50;99.90
22629;DHT22;11481;53.694;9.910;2024-03-07T09:36:15;5.60;99.90
22629;DHT22;11481;53.694;9.910;2024-03-07T09:38:42;5.60;99.90
22629;DHT22;11481;53.694;9.910;2024-03-07T09:41:09;5.50;99.90
22629;DHT22;11481;53.694;9.910;2024-03-07T09:43:36;5.50;99.90
22629;DHT22;11481;53.694;9.910;2024-03-07T09:46:05;5.40;99.90
22629;DHT22;11481;53.694;9.910;2024-03-07T09:48:34;5.40;99.90
22629;DHT22;11481;53.694;9.910;2024-03-07T09:51:05;5.30;99.90
22629;DHT22;11481;53.694;9.910;2024-03-07T09:53:40;5.30;99.90
22629;DHT22;11481;53.694;9.910;2024-03-07T09:56:11;5.40;99.90
22629;DHT22;11481;53.694;9.910;2024-03-07T09:58:43;5.50;99.90
22629;DHT22;11481;53.694;9.910;2024-03-07T10:01:11;5.50;99.90
22629;DHT22;11481;53.694;9.910;2024-03-07T10:03:41;5.50;99.90
22629;DHT22;11481;53.694;9.910;2024-03-07T10:06:11;5.60;99.90
22629;DHT22;11481;53.694;9.910;2024-03-07T10:08:38;5.50;99.90
22629;DHT22;11481;53.694;9.910;2024-03-07T10:11:05;5.50;99.90
22629;DHT22;11481;53.694;9.910;2024-03-07T10:13:32;5.50;99.90
22629;DHT22;11481;53.694;9.910;2024-03-07T10:15:58;5.40;99.90
22629;DHT22;11481;53.694;9.910;2024-03-07T10:18:28;5.40;99.90
22629;DHT22;11481;53.694;9.910;2024-03-07T10:20:56;6.40;99.90
22629;DHT22;11481;53.694;9.910;2024-03-07T10:23:25;5.50;99.90
22629;DHT22;11481;53.694;9.910;2024-03-07T10:25:53;5.60;99.90
22629;DHT22;11481;53.694;9.910;2024-03-07T10:28:21;5.60;99.90
22629;DHT22;11481;53.694;9.910;2024-03-07T10:30:48;5.60;99.90
22629;DHT22;11481;53.694;9.910;2024-03-07T10:33:17;5.60;99.90
22629;DHT22;11481;53.694;9.910;2024-03-07T10:35:48;5.50;99.90
22629;DHT22;11481;53.694;9.910;2024-03-07T10:38:16;5.60;99.90
22629;DHT22;11481;53.694;9.910;2024-03-07T10:40:55;5.60;99.90
22629;DHT22;11481;53.694;9.910;2024-03-07T10:43:29;5.70;99.90
22629;DHT22;11481;53.694;9.910;2024-03-07T10:46:00;5.70;99.90
22629;DHT22;11481;53.694;9.910;2024-03-07T10:48:39;5.70;99.90
22629;DHT22;11481;53.694;9.910;2024-03-07T10:51:19;5.80;99.90
22629;DHT22;11481;53.694;9.910;2024-03-07T10:56:46;5.90;99.90
22629;DHT22;11481;53.694;9.910;2024-03-07T10:59:18;6.00;99.90
22629;DHT22;11481;53.694;9.910;2024-03-07T11:01:59;6.10;99.90
22629;DHT22;11481;53.694;9.910;2024-03-07T11:04:33;6.20;99.90
22629;DHT22;11481;53.694;9.910;2024-03-07T11:07:04;6.30;99.90
22629;DHT22;11481;53.694;9.910;2024-03-07T11:09:34;6.40;99.90
22629;DHT22;11481;53.694;9.910;2024-03-07T11:12:03;6.40;99.90
22629;DHT22;11481;53.694;9.910;2024-03-07T11:14:30;6.40;99.90
22629;DHT22;11481;53.694;9.910;2024-03-07T11:16:59;6.40;99.90
22629;DHT22;11481;53.694;9.910;2024-03-07T11:19:28;6.50;99.90
22629;DHT22;11481;53.694;9.910;2024-03-07T11:21:58;6.50;99.90
22629;DHT22;11481;53.694;9.910;2024-03-07T11:24:29;6.50;99.90
22629;DHT22;11481;53.694;9.910;2024-03-07T11:27:04;6.60;99.90
22629;DHT22;11481;53.694;9.910;2024-03-07T11:29:50;6.70;99.90
22629;DHT22;11481;53.694;9.910;2024-03-07T11:32:21;6.60;99.90
22629;DHT22;11481;53.694;9.910;2024-03-07T11:34:50;6.70;99.90
22629;DHT22;11481;53.694;9.910;2024-03-07T11:37:41;6.80;99.90
22629;DHT22;11481;53.694;9.910;2024-03-07T11:43:02;6.80;99.90
22629;DHT22;11481;53.694;9.910;2024-03-07T11:45:32;6.90;99.90
22629;DHT22;11481;53.694;9.910;2024-03-07T11:48:13;7.00;99.90
22629;DHT22;11481;53.694;9.910;2024-03-07T11:50:43;7.00;99.90
22629;DHT22;11481;53.694;9.910;2024-03-07T11:53:10;6.90;99.90
22629;DHT22;11481;53.694;9.910;2024-03-07T11:55:38;7.00;99.90
22629;DHT22;11481;53.694;9.910;2024-03-07T11:58:26;7.00;99.90
22629;DHT22;11481;53.694;9.910;2024-03-07T12:00:58;7.20;99.90
22629;DHT22;11481;53.694;9.910;2024-03-07T12:03:26;7.20;99.90
22629;DHT22;11481;53.694;9.910;2024-03-07T12:05:55;7.20;99.90
22629;DHT22;11481;53.694;9.910;2024-03-07T12:08:23;7.20;99.90
22629;DHT22;11481;53.694;9.910;2024-03-07T12:10:53;7.20;99.90
22629;DHT22;11481;53.694;9.910;2024-03-07T12:13:25;7.10;99.90
22629;DHT22;11481;53.694;9.910;2024-03-07T12:15:53;7.20;99.90
22629;DHT22;11481;53.694;9.910;2024-03-07T12:18:23;7.20;99.90
22629;DHT22;11481;53.694;9.910;2024-03-07T12:20:51;7.30;99.90
22629;DHT22;11481;53.694;9.910;2024-03-07T12:23:23;7.30;99.90
22629;DHT22;11481;53.694;9.910;2024-03-07T12:26:00;7.30;99.90
22629;DHT22;11481;53.694;9.910;2024-03-07T12:28:28;7.40;99.90
22629;DHT22;11481;53.694;9.910;2024-03-07T12:30:59;7.30;99.90
22629;DHT22;11481;53.694;9.910;2024-03-07T12:33:29;7.30;99.90
22629;DHT22;11481;53.694;9.910;2024-03-07T12:36:02;7.40;99.90
22629;DHT22;11481;53.694;9.910;2024-03-07T12:38:37;7.40;99.90
22629;DHT22;11481;53.694;9.910;2024-03-07T12:41:07;7.40;99.90
22629;DHT22;11481;53.694;9.910;2024-03-07T12:43:42;7.40;99.90
22629;DHT22;11481;53.694;9.910;2024-03-07T12:46:12;7.40;99.90
22629;DHT22;11481;53.694;9.910;2024-03-07T12:48:40;7.50;99.90
22629;DHT22;11481;53.694;9.910;2024-03-07T12:51:09;7.50;99.90
22629;DHT22;11481;53.694;9.910;2024-03-07T12:53:37;7.50;99.90
22629;DHT22;11481;53.694;9.910;2024-03-07T12:56:04;7.50;99.90
22629;DHT22;11481;53.694;9.910;2024-03-07T12:58:31;7.50;99.90
22629;DHT22;11481;53.694;9.910;2024-03-07T13:00:59;7.50;99.90
22629;DHT22;11481;53.694;9.910;2024-03-07T13:03:26;8.40;99.90
22629;DHT22;11481;53.694;9.910;2024-03-07T13:05:58;7.60;99.90
22629;DHT22;11481;53.694;9.910;2024-03-07T13:08:29;7.60;99.90
22629;DHT22;11481;53.694;9.910;2024-03-07T13:10:57;7.70;99.90
22629;DHT22;11481;53.694;9.910;2024-03-07T13:13:25;8.10;99.90
22629;DHT22;11481;53.694;9.910;2024-03-07T13:15:52;7.80;99.90
22629;DHT22;11481;53.694;9.910;2024-03-07T13:18:23;7.80;99.90
22629;DHT22;11481;53.694;9.910;2024-03-07T13:21:20;7.80;99.90
22629;DHT22;11481;53.694;9.910;2024-03-07T13:23:47;7.90;99.90
22629;DHT22;11481;53.694;9.910;2024-03-07T13:26:19;8.00;99.90
22629;DHT22;11481;53.694;9.910;2024-03-07T13:28:53;8.00;99.90
22629;DHT22;11481;53.694;9.910;2024-03-07T13:31:20;8.00;99.90
22629;DHT22;11481;53.694;9.910;2024-03-07T13:33:47;8.00;99.90
22629;DHT22;11481;53.694;9.910;2024-03-07T13:36:18;8.00;99.90
22629;DHT22;11481;53.694;9.910;2024-03-07T13:38:54;8.10;99.90
22629;DHT22;11481;53.694;9.910;2024-03-07T13:41:23;8.10;99.90
22629;DHT22;11481;53.694;9.910;2024-03-07T13:44:02;8.20;99.90
22629;DHT22;11481;53.694;9.910;2024-03-07T13:46:30;8.10;99.90
22629;DHT22;11481;53.694;9.910;2024-03-07T13:49:02;8.20;99.90
22629;DHT22;11481;53.694;9.910;2024-03-07T13:51:43;8.30;99.90
22629;DHT22;11481;53.694;9.910;2024-03-07T13:54:17;8.50;99.90
22629;DHT22;11481;53.694;9.910;2024-03-07T13:57:15;8.60;99.90
22629;DHT22;11481;53.694;9.910;2024-03-07T14:00:06;8.80;99.90
22629;DHT22;11481;53.694;9.910;2024-03-07T14:03:16;8.80;99.90
22629;DHT22;11481;53.694;9.910;2024-03-07T14:05:56;9.00;99.90
22629;DHT22;11481;53.694;9.910;2024-03-07T14:08:56;9.10;99.90
22629;DHT22;11481;53.694;9.910;2024-03-07T14:18:43;9.10;99.90
22629;DHT22;11481;53.694;9.910;2024-03-07T14:21:23;9.20;99.90
22629;DHT22;11481;53.694;9.910;2024-03-07T14:24:35;9.20;99.90
22629;DHT22;11481;53.694;9.910;2024-03-07T14:27:37;9.20;99.90
22629;DHT22;11481;53.694;9.910;2024-03-07T14:31:06;9.20;99.90
22629;DHT22;11481;53.694;9.910;2024-03-07T14:33:20;9.40;99.90
22629;DHT22;11481;53.694;9.910;2024-03-07T14:36:09;9.50;99.90
22629;DHT22;11481;53.694;9.910;2024-03-07T14:38:40;9.60;99.90
22629;DHT22;11481;53.694;9.910;2024-03-07T14:41:11;9.80;99.90
22629;DHT22;11481;53.694;9.910;2024-03-07T14:43:43;9.90;99.90
22629;DHT22;11481;53.694;9.910;2024-03-07T14:46:13;10.10;99.90
22629;DHT22;11481;53.694;9.910;2024-03-07T14:48:42;10.20;99.90
22629;DHT22;11481;53.694;9.910;2024-03-07T14:51:11;10.40;99.90
22629;DHT22;11481;53.694;9.910;2024-03-07T14:53:40;10.60;99.90
22629;DHT22;11481;53.694;9.910;2024-03-07T14:56:08;10.70;99.90
22629;DHT22;11481;53.694;9.910;2024-03-07T14:58:36;10.80;99.90
22629;DHT22;11481;53.694;9.910;2024-03-07T15:01:04;10.90;99.90
22629;DHT22;11481;53.694;9.910;2024-03-07T15:03:34;10.90;99.90
22629;DHT22;11481;53.694;9.910;2024-03-07T15:06:03;10.90;99.90
22629;DHT22;11481;53.694;9.910;2024-03-07T15:08:34;10.80;99.90
22629;DHT22;11481;53.694;9.910;2024-03-07T15:11:20;10.70;99.90
22629;DHT22;11481;53.694;9.910;2024-03-07T15:13:53;10.80;99.90
22629;DHT22;11481;53.694;9.910;2024-03-07T15:16:21;10.70;99.90
22629;DHT22;11481;53.694;9.910;2024-03-07T15:19:04;10.70;99.90
22629;DHT22;11481;53.694;9.910;2024-03-07T15:21:42;10.80;99.90
22629;DHT22;11481;53.694;9.910;2024-03-07T15:24:12;10.90;99.90
22629;DHT22;11481;53.694;9.910;2024-03-07T15:26:42;11.10;99.90
22629;DHT22;11481;53.694;9.910;2024-03-07T15:29:12;11.20;99.90
22629;DHT22;11481;53.694;9.910;2024-03-07T15:31:40;11.10;99.90
22629;DHT22;11481;53.694;9.910;2024-03-07T15:34:12;11.10;99.90
22629;DHT22;11481;53.694;9.910;2024-03-07T15:36:44;11.10;99.90
22629;DHT22;11481;53.694;9.910;2024-03-07T15:39:17;10.90;99.90
22629;DHT22;11481;53.694;9.910;2024-03-07T15:41:54;11.50;99.90
22629;DHT22;11481;53.694;9.910;2024-03-07T15:44:21;10.70;99.90
22629;DHT22;11481;53.694;9.910;2024-03-07T15:46:51;10.60;99.90
22629;DHT22;11481;53.694;9.910;2024-03-07T15:49:21;10.80;99.90
22629;DHT22;11481;53.694;9.910;2024-03-07T15:51:54;10.80;99.90
22629;DHT22;11481;53.694;9.910;2024-03-07T15:54:23;10.80;99.90
22629;DHT22;11481;53.694;9.910;2024-03-07T15:56:51;10.80;99.90
22629;DHT22;11481;53.694;9.910;2024-03-07T15:59:18;10.80;99.90
22629;DHT22;11481;53.694;9.910;2024-03-07T16:01:48;10.70;99.90
22629;DHT22;11481;53.694;9.910;2024-03-07T16:04:15;10.70;99.90
22629;DHT22;11481;53.694;9.910;2024-03-07T16:06:45;10.80;99.90
22629;DHT22;11481;53.694;9.910;2024-03-07T16:09:23;10.70;99.90
22629;DHT22;11481;53.694;9.910;2024-03-07T16:11:51;10.70;99.90
22629;DHT22;11481;53.694;9.910;2024-03-07T16:14:23;10.70;99.90
22629;DHT22;11481;53.694;9.910;2024-03-07T16:16:51;10.60;99.90
22629;DHT22;11481;53.694;9.910;2024-03-07T16:19:24;10.50;99.90